sensor_id;sensor_type;location;lat;lon;timestamp;temperature;humidity
10583;DHT22;33679;51.218;6.786;2024-03-29T00:01:32;12.90;99.90
10583;DHT22;33679;51.218;6.786;2024-03-29T00:04:04;12.90;99.90
10583;DHT22;33679;51.218;6.786;2024-03-29T00:06:35;12.90;99.90
10583;DHT22;33679;51.218;6.786;2024-03-29T00:09:07;12.80;99.90
10583;DHT22;33679;51.218;6.786;2024-03-29T00:11:38;12.80;99.90
10583;DHT22;33679;51.218;6.786;2024-03-29T00:14:12;12.80;99.90
10583;DHT22;33679;51.218;6.786;2024-03-29T00:16:44;12.80;99.90
10583;DHT22;33679;51.218;6.786;2024-03-29T00:19:15;12.70;99.90
10583;DHT22;33679;51.218;6.786;2024-03-29T00:21:51;12.70;99.90
10583;DHT22;33679;51.218;6.786;2024-03-29T00:24:22;12.70;99.90
10583;DHT22;33679;51.218;6.786;2024-03-29T00:26:55;12.80;99.90
10583;DHT22;33679;51.218;6.786;2024-03-29T00:29:28;12.70;99.90
10583;DHT22;33679;51.218;6.786;2024-03-29T00:32:00;12.70;99.90
10583;DHT22;33679;51.218;6.786;2024-03-29T00:34:31;12.70;99.90
10583;DHT22;33679;51.218;6.786;2024-03-29T00:37:04;12.70;99.90
10583;DHT22;33679;51.218;6.786;2024-03-29T00:39:36;12.70;99.90
10583;DHT22;33679;51.218;6.786;2024-03-29T00:42:07;12.70;99.90
10583;DHT22;33679;51.218;6.786;2024-03-29T00:44:41;12.70;99.90
10583;DHT22;33679;51.218;6.786;2024-03-29T00:47:13;12.70;99.90
10583;DHT22;33679;51.218;6.786;2024-03-29T00:49:44;12.60;99.90
10583;DHT22;33679;51.218;6.786;2024-03-29T00:52:16;12.60;99.90
10583;DHT22;33679;51.218;6.786;2024-03-29T00:54:47;12.60;99.90
10583;DHT22;33679;51.218;6.786;2024-03-29T00:57:18;12.60;99.90
10583;DHT22;33679;51.218;6.786;2024-03-29T00:59:52;12.60;99.90
10583;DHT22;33679;51.218;6.786;2024-03-29T01:02:24;12.60;99.90
10583;DHT22;33679;51.218;6.786;2024-03-29T01:04:56;12.60;99.90
10583;DHT22;33679;51.218;6.786;2024-03-29T01:07:28;12.60;99.90
10583;DHT22;33679;51.218;6.786;2024-03-29T01:09:59;12.70;99.90
10583;DHT22;33679;51.218;6.786;2024-03-29T01:12:31;12.70;99.90
10583;DHT22;33679;51.218;6.786;2024-03-29T01:15:05;12.70;99.90
10583;DHT22;33679;51.218;6.786;2024-03-29T01:17:37;12.70;99.90
10583;DHT22;33679;51.218;6.786;2024-03-29T01:20:09;12.70;99.90
10583;DHT22;33679;51.218;6.786;2024-03-29T01:22:41;12.80;99.90
10583;DHT22;33679;51.218;6.786;2024-03-29T01:25:15;12.70;99.90
10583;DHT22;33679;51.218;6.786;2024-03-29T01:27:47;12.70;99.90
10583;DHT22;33679;51.218;6.786;2024-03-29T01:30:20;12.80;99.90
10583;DHT22;33679;51.218;6.786;2024-03-29T01:32:51;12.70;99.90
10583;DHT22;33679;51.218;6.786;2024-03-29T01:35:24;12.80;99.90
10583;DHT22;33679;51.218;6.786;2024-03-29T01:37:55;12.70;99.90
10583;DHT22;33679;51.218;6.786;2024-03-29T01:40:29;12.70;99.90
10583;DHT22;33679;51.218;6.786;2024-03-29T01:43:01;12.70;99.90
10583;DHT22;33679;51.218;6.786;2024-03-29T01:45:38;12.70;99.90
10583;DHT22;33679;51.218;6.786;2024-03-29T01:48:12;12.70;99.90
10583;DHT22;33679;51.218;6.786;2024-03-29T01:50:47;12.70;99.90
10583;DHT22;33679;51.218;6.786;2024-03-29T01:53:23;12.70;99.90
10583;DHT22;33679;51.218;6.786;2024-03-29T01:55:56;12.70;99.90
10583;DHT22;33679;51.218;6.786;2024-03-29T01:58:31;12.70;99.90
10583;DHT22;33679;51.218;6.786;2024-03-29T02:01:05;12.70;99.90
10583;DHT22;33679;51.218;6.786;2024-03-29T02:03:39;12.70;99.90
10583;DHT22;33679;51.218;6.786;2024-03-29T02:06:11;12.80;99.90
10583;DHT22;33679;51.218;6.786;2024-03-29T02:08:44;12.80;99.90
10583;DHT22;33679;51.218;6.786;2024-03-29T02:11:17;12.80;99.90
10583;DHT22;33679;51.218;6.786;2024-03-29T02:13:50;12.80;99.90
10583;DHT22;33679;51.218;6.786;2024-03-29T02:16:24;12.90;99.90
10583;DHT22;33679;51.218;6.786;2024-03-29T02:18:59;12.90;99.90
10583;DHT22;33679;51.218;6.786;2024-03-29T02:21:32;12.90;99.90
10583;DHT22;33679;51.218;6.786;2024-03-29T02:24:08;12.90;99.90
10583;DHT22;33679;51.218;6.786;2024-03-29T02:26:41;13.00;99.90
10583;DHT22;33679;51.218;6.786;2024-03-29T02:29:14;13.00;99.90
10583;DHT22;33679;51.218;6.786;2024-03-29T02:31:46;13.10;99.90
10583;DHT22;33679;51.218;6.786;2024-03-29T02:34:18;13.10;99.90
10583;DHT22;33679;51.218;6.786;2024-03-29T02:36:51;13.10;99.90
10583;DHT22;33679;51.218;6.786;2024-03-29T02:39:26;13.10;99.90
10583;DHT22;33679;51.218;6.786;2024-03-29T02:41:58;13.10;99.90
10583;DHT22;33679;51.218;6.786;2024-03-29T02:44:32;13.10;99.90
10583;DHT22;33679;51.218;6.786;2024-03-29T02:47:06;13.10;99.90
10583;DHT22;33679;51.218;6.786;2024-03-29T02:49:39;13.10;99.90
10583;DHT22;33679;51.218;6.786;2024-03-29T02:52:10;13.10;99.90
10583;DHT22;33679;51.218;6.786;2024-03-29T02:54:46;13.20;99.90
10583;DHT22;33679;51.218;6.786;2024-03-29T02:57:18;13.20;99.90
10583;DHT22;33679;51.218;6.786;2024-03-29T02:59:50;13.20;99.90
10583;DHT22;33679;51.218;6.786;2024-03-29T03:02:22;13.20;99.90
10583;DHT22;33679;51.218;6.786;2024-03-29T03:04:54;13.20;99.90
10583;DHT22;33679;51.218;6.786;2024-03-29T03:07:25;13.20;99.90
10583;DHT22;33679;51.218;6.786;2024-03-29T03:10:17;13.20;99.90
10583;DHT22;33679;51.218;6.786;2024-03-29T03:13:06;13.20;99.90
10583;DHT22;33679;51.218;6.786;2024-03-29T03:15:39;13.20;99.90
10583;DHT22;33679;51.218;6.786;2024-03-29T03:18:11;13.20;99.90
10583;DHT22;33679;51.218;6.786;2024-03-29T03:20:50;13.20;99.90
10583;DHT22;33679;51.218;6.786;2024-03-29T03:23:22;13.30;99.90
10583;DHT22;33679;51.218;6.786;2024-03-29T03:25:57;13.30;99.90
10583;DHT22;33679;51.218;6.786;2024-03-29T03:28:30;13.30;99.90
10583;DHT22;33679;51.218;6.786;2024-03-29T03:31:04;13.30;99.90
10583;DHT22;33679;51.218;6.786;2024-03-29T03:33:35;13.30;99.90
10583;DHT22;33679;51.218;6.786;2024-03-29T03:36:07;13.40;99.90
10583;DHT22;33679;51.218;6.786;2024-03-29T03:38:39;13.40;99.90
10583;DHT22;33679;51.218;6.786;2024-03-29T03:41:13;13.40;99.90
10583;DHT22;33679;51.218;6.786;2024-03-29T03:43:45;13.40;99.90
10583;DHT22;33679;51.218;6.786;2024-03-29T03:46:18;13.40;99.90
10583;DHT22;33679;51.218;6.786;2024-03-29T03:48:49;13.40;99.90
10583;DHT22;33679;51.218;6.786;2024-03-29T03:51:22;13.40;99.90
10583;DHT22;33679;51.218;6.786;2024-03-29T03:53:54;13.40;99.90
10583;DHT22;33679;51.218;6.786;2024-03-29T03:56:29;13.40;99.90
10583;DHT22;33679;51.218;6.786;2024-03-29T03:59:01;13.40;99.90
10583;DHT22;33679;51.218;6.786;2024-03-29T04:01:34;13.40;99.90
10583;DHT22;33679;51.218;6.786;2024-03-29T04:04:06;13.40;99.90
10583;DHT22;33679;51.218;6.786;2024-03-29T04:06:38;13.40;99.90
10583;DHT22;33679;51.218;6.786;2024-03-29T04:09:10;13.40;99.90
10583;DHT22;33679;51.218;6.786;2024-03-29T04:11:44;13.40;99.90
10583;DHT22;33679;51.218;6.786;2024-03-29T04:14:16;13.40;99.90
10583;DHT22;33679;51.218;6.786;2024-03-29T04:16:50;13.40;99.90
10583;DHT22;33679;51.218;6.786;2024-03-29T04:19:22;13.40;99.90
10583;DHT22;33679;51.218;6.786;2024-03-29T04:21:54;13.40;99.90
10583;DHT22;33679;51.218;6.786;2024-03-29T04:24:25;13.40;99.90
10583;DHT22;33679;51.218;6.786;2024-03-29T04:27:01;13.40;99.90
10583;DHT22;33679;51.218;6.786;2024-03-29T04:29:35;13.40;99.90
10583;DHT22;33679;51.218;6.786;2024-03-29T04:32:08;13.40;99.90
10583;DHT22;33679;51.218;6.786;2024-03-29T04:34:40;13.40;99.90
10583;DHT22;33679;51.218;6.786;2024-03-29T04:37:12;13.30;99.90
10583;DHT22;33679;51.218;6.786;2024-03-29T04:39:46;13.30;99.90
10583;DHT22;33679;51.218;6.786;2024-03-29T04:42:23;13.30;99.90
10583;DHT22;33679;51.218;6.786;2024-03-29T04:44:55;13.30;99.90
10583;DHT22;33679;51.218;6.786;2024-03-29T04:47:28;13.30;99.90
10583;DHT22;33679;51.218;6.786;2024-03-29T04:50:00;13.30;99.90
10583;DHT22;33679;51.218;6.786;2024-03-29T04:52:33;13.30;99.90
10583;DHT22;33679;51.218;6.786;2024-03-29T04:55:05;13.30;99.90
10583;DHT22;33679;51.218;6.786;2024-03-29T04:57:39;13.20;99.90
10583;DHT22;33679;51.218;6.786;2024-03-29T05:00:13;13.20;99.90
10583;DHT22;33679;51.218;6.786;2024-03-29T05:02:46;13.20;99.90
10583;DHT22;33679;51.218;6.786;2024-03-29T05:05:19;13.20;99.90
10583;DHT22;33679;51.218;6.786;2024-03-29T05:07:52;13.20;99.90
10583;DHT22;33679;51.218;6.786;2024-03-29T05:10:24;13.20;99.90
10583;DHT22;33679;51.218;6.786;2024-03-29T05:13:03;13.10;99.90
10583;DHT22;33679;51.218;6.786;2024-03-29T05:15:36;13.20;99.90
10583;DHT22;33679;51.218;6.786;2024-03-29T05:18:09;13.10;99.90
10583;DHT22;33679;51.218;6.786;2024-03-29T05:20:42;13.10;99.90
10583;DHT22;33679;51.218;6.786;2024-03-29T05:23:18;13.20;99.90
10583;DHT22;33679;51.218;6.786;2024-03-29T05:25:50;13.20;99.90
10583;DHT22;33679;51.218;6.786;2024-03-29T05:28:25;13.20;99.90
10583;DHT22;33679;51.218;6.786;2024-03-29T05:31:11;13.20;99.90
10583;DHT22;33679;51.218;6.786;2024-03-29T05:33:45;13.20;99.90
10583;DHT22;33679;51.218;6.786;2024-03-29T05:36:20;13.10;99.90
10583;DHT22;33679;51.218;6.786;2024-03-29T05:38:52;13.10;99.90
10583;DHT22;33679;51.218;6.786;2024-03-29T05:41:25;13.10;99.90
10583;DHT22;33679;51.218;6.786;2024-03-29T05:43:59;13.00;99.90
10583;DHT22;33679;51.218;6.786;2024-03-29T05:46:31;13.00;99.90
10583;DHT22;33679;51.218;6.786;2024-03-29T05:49:04;13.00;99.90
10583;DHT22;33679;51.218;6.786;2024-03-29T05:51:36;13.00;99.90
10583;DHT22;33679;51.218;6.786;2024-03-29T05:54:08;12.90;99.90
10583;DHT22;33679;51.218;6.786;2024-03-29T05:56:43;13.00;99.90
10583;DHT22;33679;51.218;6.786;2024-03-29T05:59:17;12.90;99.90
10583;DHT22;33679;51.218;6.786;2024-03-29T06:01:49;12.90;99.90
10583;DHT22;33679;51.218;6.786;2024-03-29T06:04:22;12.80;99.90
10583;DHT22;33679;51.218;6.786;2024-03-29T06:07:04;12.80;99.90
10583;DHT22;33679;51.218;6.786;2024-03-29T06:09:43;12.80;99.90
10583;DHT22;33679;51.218;6.786;2024-03-29T06:12:18;12.80;99.90
10583;DHT22;33679;51.218;6.786;2024-03-29T06:14:52;12.70;99.90
10583;DHT22;33679;51.218;6.786;2024-03-29T06:17:53;12.70;99.90
10583;DHT22;33679;51.218;6.786;2024-03-29T06:20:25;12.70;99.90
10583;DHT22;33679;51.218;6.786;2024-03-29T06:22:59;12.70;99.90
10583;DHT22;33679;51.218;6.786;2024-03-29T06:25:32;12.80;99.90
10583;DHT22;33679;51.218;6.786;2024-03-29T06:28:05;12.70;99.90
10583;DHT22;33679;51.218;6.786;2024-03-29T06:30:40;12.70;99.90
10583;DHT22;33679;51.218;6.786;2024-03-29T06:33:16;12.70;99.90
10583;DHT22;33679;51.218;6.786;2024-03-29T06:35:53;12.70;99.90
10583;DHT22;33679;51.218;6.786;2024-03-29T06:38:26;12.70;99.90
10583;DHT22;33679;51.218;6.786;2024-03-29T06:40:59;12.80;99.90
10583;DHT22;33679;51.218;6.786;2024-03-29T06:43:33;12.80;99.90
10583;DHT22;33679;51.218;6.786;2024-03-29T06:46:07;12.80;99.90
10583;DHT22;33679;51.218;6.786;2024-03-29T06:48:39;12.80;99.90
10583;DHT22;33679;51.218;6.786;2024-03-29T06:51:11;12.80;99.90
10583;DHT22;33679;51.218;6.786;2024-03-29T06:53:44;12.90;99.90
10583;DHT22;33679;51.218;6.786;2024-03-29T06:56:16;12.90;99.90
10583;DHT22;33679;51.218;6.786;2024-03-29T06:58:49;12.90;99.90
10583;DHT22;33679;51.218;6.786;2024-03-29T07:01:23;13.00;99.90
10583;DHT22;33679;51.218;6.786;2024-03-29T07:03:55;13.00;99.90
10583;DHT22;33679;51.218;6.786;2024-03-29T07:06:28;13.00;99.90
10583;DHT22;33679;51.218;6.786;2024-03-29T07:09:00;13.00;99.90
10583;DHT22;33679;51.218;6.786;2024-03-29T07:11:34;13.00;99.90
10583;DHT22;33679;51.218;6.786;2024-03-29T07:14:07;13.10;99.90
10583;DHT22;33679;51.218;6.786;2024-03-29T07:16:40;13.10;99.90
10583;DHT22;33679;51.218;6.786;2024-03-29T07:19:14;13.20;99.90
10583;DHT22;33679;51.218;6.786;2024-03-29T07:21:47;13.20;99.90
10583;DHT22;33679;51.218;6.786;2024-03-29T07:24:22;13.20;99.90
10583;DHT22;33679;51.218;6.786;2024-03-29T07:26:57;13.20;99.90
10583;DHT22;33679;51.218;6.786;2024-03-29T07:29:31;13.30;99.90
10583;DHT22;33679;51.218;6.786;2024-03-29T07:32:06;13.30;99.90
10583;DHT22;33679;51.218;6.786;2024-03-29T07:34:40;13.30;99.90
10583;DHT22;33679;51.218;6.786;2024-03-29T07:37:14;13.40;99.90
10583;DHT22;33679;51.218;6.786;2024-03-29T07:39:47;13.40;99.90
10583;DHT22;33679;51.218;6.786;2024-03-29T07:42:20;13.50;99.90
10583;DHT22;33679;51.218;6.786;2024-03-29T07:44:53;13.60;99.90
10583;DHT22;33679;51.218;6.786;2024-03-29T07:47:27;13.60;99.90
10583;DHT22;33679;51.218;6.786;2024-03-29T07:49:59;13.70;99.90
10583;DHT22;33679;51.218;6.786;2024-03-29T07:52:32;13.70;99.90
10583;DHT22;33679;51.218;6.786;2024-03-29T07:55:04;13.70;99.90
10583;DHT22;33679;51.218;6.786;2024-03-29T07:57:36;13.80;99.90
10583;DHT22;33679;51.218;6.786;2024-03-29T08:00:10;13.80;99.90
10583;DHT22;33679;51.218;6.786;2024-03-29T08:02:43;13.90;99.90
10583;DHT22;33679;51.218;6.786;2024-03-29T08:05:17;14.00;99.90
10583;DHT22;33679;51.218;6.786;2024-03-29T08:07:49;14.00;99.90
10583;DHT22;33679;51.218;6.786;2024-03-29T08:10:22;14.00;99.90
10583;DHT22;33679;51.218;6.786;2024-03-29T08:12:55;14.10;99.90
10583;DHT22;33679;51.218;6.786;2024-03-29T08:15:28;14.10;99.90
10583;DHT22;33679;51.218;6.786;2024-03-29T08:18:01;14.20;99.90
10583;DHT22;33679;51.218;6.786;2024-03-29T08:20:34;14.30;99.90
10583;DHT22;33679;51.218;6.786;2024-03-29T08:23:06;14.30;99.90
10583;DHT22;33679;51.218;6.786;2024-03-29T08:25:39;14.40;99.90
10583;DHT22;33679;51.218;6.786;2024-03-29T08:28:11;14.50;99.90
10583;DHT22;33679;51.218;6.786;2024-03-29T08:30:44;14.60;99.90
10583;DHT22;33679;51.218;6.786;2024-03-29T08:33:18;14.60;99.90
10583;DHT22;33679;51.218;6.786;2024-03-29T08:35:50;14.70;99.90
10583;DHT22;33679;51.218;6.786;2024-03-29T08:38:23;14.70;99.90
10583;DHT22;33679;51.218;6.786;2024-03-29T08:40:56;14.80;99.90
10583;DHT22;33679;51.218;6.786;2024-03-29T08:43:28;14.90;99.90
10583;DHT22;33679;51.218;6.786;2024-03-29T08:46:01;14.90;99.90
10583;DHT22;33679;51.218;6.786;2024-03-29T08:48:34;15.00;99.90
10583;DHT22;33679;51.218;6.786;2024-03-29T08:51:08;15.00;99.90
10583;DHT22;33679;51.218;6.786;2024-03-29T08:53:41;15.00;99.90
10583;DHT22;33679;51.218;6.786;2024-03-29T08:56:14;15.00;99.90
10583;DHT22;33679;51.218;6.786;2024-03-29T08:58:47;15.10;99.90
10583;DHT22;33679;51.218;6.786;2024-03-29T09:01:20;15.20;99.90
10583;DHT22;33679;51.218;6.786;2024-03-29T09:03:55;15.20;99.90
10583;DHT22;33679;51.218;6.786;2024-03-29T09:06:27;15.20;99.90
10583;DHT22;33679;51.218;6.786;2024-03-29T09:09:00;15.30;99.90
10583;DHT22;33679;51.218;6.786;2024-03-29T09:11:32;15.30;99.90
10583;DHT22;33679;51.218;6.786;2024-03-29T09:14:04;15.40;99.90
10583;DHT22;33679;51.218;6.786;2024-03-29T09:16:40;15.50;99.90
10583;DHT22;33679;51.218;6.786;2024-03-29T09:19:14;15.50;99.90
10583;DHT22;33679;51.218;6.786;2024-03-29T09:21:47;15.60;99.90
10583;DHT22;33679;51.218;6.786;2024-03-29T09:24:19;15.70;99.90
10583;DHT22;33679;51.218;6.786;2024-03-29T09:26:56;15.90;99.90
10583;DHT22;33679;51.218;6.786;2024-03-29T09:29:28;16.10;99.90
10583;DHT22;33679;51.218;6.786;2024-03-29T09:32:01;16.20;99.90
10583;DHT22;33679;51.218;6.786;2024-03-29T09:34:38;16.40;99.90
10583;DHT22;33679;51.218;6.786;2024-03-29T09:37:10;16.50;99.90
10583;DHT22;33679;51.218;6.786;2024-03-29T09:39:42;16.50;99.90
10583;DHT22;33679;51.218;6.786;2024-03-29T09:42:17;16.70;99.90
10583;DHT22;33679;51.218;6.786;2024-03-29T09:44:55;16.80;99.90
10583;DHT22;33679;51.218;6.786;2024-03-29T09:47:31;16.90;99.90
10583;DHT22;33679;51.218;6.786;2024-03-29T09:50:08;16.90;99.90
10583;DHT22;33679;51.218;6.786;2024-03-29T09:52:40;16.90;99.90
10583;DHT22;33679;51.218;6.786;2024-03-29T09:55:15;16.90;99.90
10583;DHT22;33679;51.218;6.786;2024-03-29T09:57:52;17.00;99.90
10583;DHT22;33679;51.218;6.786;2024-03-29T10:00:26;17.00;99.90
10583;DHT22;33679;51.218;6.786;2024-03-29T10:03:00;17.00;99.90
10583;DHT22;33679;51.218;6.786;2024-03-29T10:05:35;16.90;99.90
10583;DHT22;33679;51.218;6.786;2024-03-29T10:08:08;17.00;99.90
10583;DHT22;33679;51.218;6.786;2024-03-29T10:10:41;17.00;99.90
10583;DHT22;33679;51.218;6.786;2024-03-29T10:13:14;17.00;99.90
10583;DHT22;33679;51.218;6.786;2024-03-29T10:15:46;17.00;99.90
10583;DHT22;33679;51.218;6.786;2024-03-29T10:18:21;17.10;99.90
10583;DHT22;33679;51.218;6.786;2024-03-29T10:21:02;17.10;99.90
10583;DHT22;33679;51.218;6.786;2024-03-29T10:23:36;17.10;99.90
10583;DHT22;33679;51.218;6.786;2024-03-29T10:26:09;17.20;99.90
10583;DHT22;33679;51.218;6.786;2024-03-29T10:28:45;17.20;99.90
10583;DHT22;33679;51.218;6.786;2024-03-29T10:31:18;17.20;99.90
10583;DHT22;33679;51.218;6.786;2024-03-29T10:33:50;17.20;99.90
10583;DHT22;33679;51.218;6.786;2024-03-29T10:36:27;17.20;99.90
10583;DHT22;33679;51.218;6.786;2024-03-29T10:39:02;17.20;99.90
10583;DHT22;33679;51.218;6.786;2024-03-29T10:41:39;17.20;99.90
10583;DHT22;33679;51.218;6.786;2024-03-29T10:44:12;17.20;99.90
10583;DHT22;33679;51.218;6.786;2024-03-29T10:46:45;17.20;99.90
10583;DHT22;33679;51.218;6.786;2024-03-29T10:49:20;17.30;99.90
10583;DHT22;33679;51.218;6.786;2024-03-29T10:51:56;17.40;99.90
10583;DHT22;33679;51.218;6.786;2024-03-29T10:54:31;17.50;99.90
10583;DHT22;33679;51.218;6.786;2024-03-29T10:57:12;17.70;99.90
10583;DHT22;33679;51.218;6.786;2024-03-29T10:59:55;17.70;99.90
10583;DHT22;33679;51.218;6.786;2024-03-29T11:02:39;17.80;99.90
10583;DHT22;33679;51.218;6.786;2024-03-29T11:05:12;17.90;99.90
10583;DHT22;33679;51.218;6.786;2024-03-29T11:07:49;18.00;99.90
10583;DHT22;33679;51.218;6.786;2024-03-29T11:10:27;18.10;99.90
10583;DHT22;33679;51.218;6.786;2024-03-29T11:13:09;18.20;99.90
10583;DHT22;33679;51.218;6.786;2024-03-29T11:15:44;18.30;99.90
10583;DHT22;33679;51.218;6.786;2024-03-29T11:18:17;18.40;99.90
10583;DHT22;33679;51.218;6.786;2024-03-29T11:20:52;18.50;99.90
10583;DHT22;33679;51.218;6.786;2024-03-29T11:23:27;18.60;99.90
10583;DHT22;33679;51.218;6.786;2024-03-29T11:26:00;18.60;99.90
10583;DHT22;33679;51.218;6.786;2024-03-29T11:28:37;18.50;99.90
10583;DHT22;33679;51.218;6.786;2024-03-29T11:31:14;18.50;99.90
10583;DHT22;33679;51.218;6.786;2024-03-29T11:33:48;18.50;99.90
10583;DHT22;33679;51.218;6.786;2024-03-29T11:36:25;18.50;99.90
10583;DHT22;33679;51.218;6.786;2024-03-29T11:39:01;18.50;99.90
10583;DHT22;33679;51.218;6.786;2024-03-29T11:41:34;18.50;99.90
10583;DHT22;33679;51.218;6.786;2024-03-29T11:44:08;18.50;99.90
10583;DHT22;33679;51.218;6.786;2024-03-29T11:46:40;18.50;99.90
10583;DHT22;33679;51.218;6.786;2024-03-29T11:49:12;18.50;99.90
10583;DHT22;33679;51.218;6.786;2024-03-29T11:51:45;18.50;99.90
10583;DHT22;33679;51.218;6.786;2024-03-29T11:54:20;18.50;99.90
10583;DHT22;33679;51.218;6.786;2024-03-29T11:56:54;18.50;99.90
10583;DHT22;33679;51.218;6.786;2024-03-29T11:59:26;18.50;99.90
10583;DHT22;33679;51.218;6.786;2024-03-29T12:01:58;18.50;99.90
10583;DHT22;33679;51.218;6.786;2024-03-29T12:04:32;18.50;99.90
10583;DHT22;33679;51.218;6.786;2024-03-29T12:07:05;18.40;99.90
10583;DHT22;33679;51.218;6.786;2024-03-29T12:09:39;18.30;99.90
10583;DHT22;33679;51.218;6.786;2024-03-29T12:12:12;18.30;99.90
10583;DHT22;33679;51.218;6.786;2024-03-29T12:14:48;18.30;99.90
10583;DHT22;33679;51.218;6.786;2024-03-29T12:17:22;18.30;99.90
10583;DHT22;33679;51.218;6.786;2024-03-29T12:19:58;18.30;99.90
10583;DHT22;33679;51.218;6.786;2024-03-29T12:22:36;18.40;99.90
10583;DHT22;33679;51.218;6.786;2024-03-29T12:25:10;18.40;99.90
10583;DHT22;33679;51.218;6.786;2024-03-29T12:27:42;18.40;99.90
10583;DHT22;33679;51.218;6.786;2024-03-29T12:30:18;18.50;99.90
10583;DHT22;33679;51.218;6.786;2024-03-29T12:33:00;18.50;99.90
10583;DHT22;33679;51.218;6.786;2024-03-29T12:35:34;18.50;99.90
10583;DHT22;33679;51.218;6.786;2024-03-29T12:38:11;18.40;99.90
10583;DHT22;33679;51.218;6.786;2024-03-29T12:40:47;18.40;99.90
10583;DHT22;33679;51.218;6.786;2024-03-29T12:43:20;18.40;99.90
10583;DHT22;33679;51.218;6.786;2024-03-29T12:45:53;18.40;99.90
10583;DHT22;33679;51.218;6.786;2024-03-29T12:48:26;18.40;99.90
10583;DHT22;33679;51.218;6.786;2024-03-29T12:51:01;18.40;99.90
10583;DHT22;33679;51.218;6.786;2024-03-29T12:53:39;18.40;99.90
10583;DHT22;33679;51.218;6.786;2024-03-29T12:56:13;18.40;99.90
10583;DHT22;33679;51.218;6.786;2024-03-29T12:58:45;18.40;99.90
10583;DHT22;33679;51.218;6.786;2024-03-29T13:01:17;18.50;99.90
10583;DHT22;33679;51.218;6.786;2024-03-29T13:03:50;18.50;99.90
10583;DHT22;33679;51.218;6.786;2024-03-29T13:06:23;18.60;99.90
10583;DHT22;33679;51.218;6.786;2024-03-29T13:08:55;18.60;99.90
10583;DHT22;33679;51.218;6.786;2024-03-29T13:11:30;18.80;99.90
10583;DHT22;33679;51.218;6.786;2024-03-29T13:14:04;18.90;99.90
10583;DHT22;33679;51.218;6.786;2024-03-29T13:16:38;18.90;99.90
10583;DHT22;33679;51.218;6.786;2024-03-29T13:19:10;18.90;99.90
10583;DHT22;33679;51.218;6.786;2024-03-29T13:21:43;18.90;99.90
10583;DHT22;33679;51.218;6.786;2024-03-29T13:24:16;18.90;99.90
10583;DHT22;33679;51.218;6.786;2024-03-29T13:26:49;19.00;99.90
10583;DHT22;33679;51.218;6.786;2024-03-29T13:29:24;19.00;99.90
10583;DHT22;33679;51.218;6.786;2024-03-29T13:31:56;19.00;99.90
10583;DHT22;33679;51.218;6.786;2024-03-29T13:34:29;19.10;99.90
10583;DHT22;33679;51.218;6.786;2024-03-29T13:37:01;19.20;99.90
10583;DHT22;33679;51.218;6.786;2024-03-29T13:39:35;19.40;99.90
10583;DHT22;33679;51.218;6.786;2024-03-29T13:42:13;19.40;99.90
10583;DHT22;33679;51.218;6.786;2024-03-29T13:44:46;19.60;99.90
10583;DHT22;33679;51.218;6.786;2024-03-29T13:47:19;19.70;99.90
10583;DHT22;33679;51.218;6.786;2024-03-29T13:49:51;19.70;99.90
10583;DHT22;33679;51.218;6.786;2024-03-29T13:52:27;19.80;99.90
10583;DHT22;33679;51.218;6.786;2024-03-29T13:54:59;19.80;99.90
10583;DHT22;33679;51.218;6.786;2024-03-29T13:57:33;19.90;99.90
10583;DHT22;33679;51.218;6.786;2024-03-29T14:00:06;19.90;99.90
10583;DHT22;33679;51.218;6.786;2024-03-29T14:02:39;19.90;99.90
10583;DHT22;33679;51.218;6.786;2024-03-29T14:05:13;19.90;99.90
10583;DHT22;33679;51.218;6.786;2024-03-29T14:07:45;19.90;99.90
10583;DHT22;33679;51.218;6.786;2024-03-29T14:10:19;19.90;99.90
10583;DHT22;33679;51.218;6.786;2024-03-29T14:12:54;19.90;99.90
10583;DHT22;33679;51.218;6.786;2024-03-29T14:15:27;19.80;99.90
10583;DHT22;33679;51.218;6.786;2024-03-29T14:18:00;19.80;99.90
10583;DHT22;33679;51.218;6.786;2024-03-29T14:20:33;19.80;99.90
10583;DHT22;33679;51.218;6.786;2024-03-29T14:23:06;19.80;99.90
10583;DHT22;33679;51.218;6.786;2024-03-29T14:25:41;19.90;99.90
10583;DHT22;33679;51.218;6.786;2024-03-29T14:28:15;19.90;99.90
10583;DHT22;33679;51.218;6.786;2024-03-29T14:30:50;19.90;99.90
10583;DHT22;33679;51.218;6.786;2024-03-29T14:33:22;20.00;99.90
10583;DHT22;33679;51.218;6.786;2024-03-29T14:35:55;20.00;99.90
10583;DHT22;33679;51.218;6.786;2024-03-29T14:38:30;20.00;99.90
10583;DHT22;33679;51.218;6.786;2024-03-29T14:41:02;20.10;99.90
10583;DHT22;33679;51.218;6.786;2024-03-29T14:43:36;20.10;99.90
10583;DHT22;33679;51.218;6.786;2024-03-29T14:46:08;20.10;99.90
10583;DHT22;33679;51.218;6.786;2024-03-29T14:48:41;20.20;99.90
10583;DHT22;33679;51.218;6.786;2024-03-29T14:51:15;20.20;99.90
10583;DHT22;33679;51.218;6.786;2024-03-29T14:53:49;20.20;99.90
10583;DHT22;33679;51.218;6.786;2024-03-29T14:56:22;20.30;99.90
10583;DHT22;33679;51.218;6.786;2024-03-29T14:58:56;20.20;99.90
10583;DHT22;33679;51.218;6.786;2024-03-29T15:01:28;20.30;99.90
10583;DHT22;33679;51.218;6.786;2024-03-29T15:04:00;20.20;99.90
10583;DHT22;33679;51.218;6.786;2024-03-29T15:06:33;20.30;99.90
10583;DHT22;33679;51.218;6.786;2024-03-29T15:09:05;20.20;99.90
10583;DHT22;33679;51.218;6.786;2024-03-29T15:11:38;20.20;99.90
10583;DHT22;33679;51.218;6.786;2024-03-29T15:14:11;20.20;99.90
10583;DHT22;33679;51.218;6.786;2024-03-29T15:16:46;20.10;99.90
10583;DHT22;33679;51.218;6.786;2024-03-29T15:19:22;20.00;99.90
10583;DHT22;33679;51.218;6.786;2024-03-29T15:21:55;19.90;99.90
10583;DHT22;33679;51.218;6.786;2024-03-29T15:24:28;19.80;99.90
10583;DHT22;33679;51.218;6.786;2024-03-29T15:27:00;19.80;99.90
10583;DHT22;33679;51.218;6.786;2024-03-29T15:29:35;19.60;99.90
10583;DHT22;33679;51.218;6.786;2024-03-29T15:32:06;19.50;99.90
10583;DHT22;33679;51.218;6.786;2024-03-29T15:34:39;19.50;99.90
10583;DHT22;33679;51.218;6.786;2024-03-29T15:37:11;19.50;99.90
10583;DHT22;33679;51.218;6.786;2024-03-29T15:39:43;19.40;99.90
10583;DHT22;33679;51.218;6.786;2024-03-29T15:42:16;19.30;99.90
10583;DHT22;33679;51.218;6.786;2024-03-29T15:44:50;19.30;99.90
10583;DHT22;33679;51.218;6.786;2024-03-29T15:47:22;19.20;99.90
10583;DHT22;33679;51.218;6.786;2024-03-29T15:49:55;19.10;99.90
10583;DHT22;33679;51.218;6.786;2024-03-29T15:52:27;19.10;99.90
10583;DHT22;33679;51.218;6.786;2024-03-29T15:54:59;19.00;99.90
10583;DHT22;33679;51.218;6.786;2024-03-29T15:57:32;19.00;99.90
10583;DHT22;33679;51.218;6.786;2024-03-29T16:00:07;18.90;99.90
10583;DHT22;33679;51.218;6.786;2024-03-29T16:02:49;18.90;99.90
10583;DHT22;33679;51.218;6.786;2024-03-29T16:05:21;18.90;99.90
10583;DHT22;33679;51.218;6.786;2024-03-29T16:07:54;18.80;99.90
10583;DHT22;33679;51.218;6.786;2024-03-29T16:10:26;18.80;99.90